sensor_id;sensor_type;location;lat;lon;timestamp;P1;durP1;ratioP1;P2;durP2;ratioP2
32697;SDS011;19087;51.062;3.754;2023-09-30T00:01:00;0.20;;;0.20;;
32697;SDS011;19087;51.062;3.754;2023-09-30T00:03:27;0.20;;;0.20;;
32697;SDS011;19087;51.062;3.754;2023-09-30T00:05:53;0.20;;;0.20;;
32697;SDS011;19087;51.062;3.754;2023-09-30T00:08:19;0.30;;;0.30;;
32697;SDS011;19087;51.062;3.754;2023-09-30T00:10:45;0.20;;;0.20;;
32697;SDS011;19087;51.062;3.754;2023-09-30T00:13:12;0.28;;;0.28;;
32697;SDS011;19087;51.062;3.754;2023-09-30T00:15:38;0.20;;;0.20;;
32697;SDS011;19087;51.062;3.754;2023-09-30T00:18:04;0.20;;;0.20;;
32697;SDS011;19087;51.062;3.754;2023-09-30T00:20:30;0.20;;;0.20;;
32697;SDS011;19087;51.062;3.754;2023-09-30T00:22:57;0.20;;;0.20;;
32697;SDS011;19087;51.062;3.754;2023-09-30T00:25:23;0.30;;;0.30;;
32697;SDS011;19087;51.062;3.754;2023-09-30T00:27:48;0.25;;;0.25;;
32697;SDS011;19087;51.062;3.754;2023-09-30T00:30:14;0.20;;;0.20;;
32697;SDS011;19087;51.062;3.754;2023-09-30T00:32:41;0.20;;;0.20;;
32697;SDS011;19087;51.062;3.754;2023-09-30T00:35:07;0.20;;;0.20;;
32697;SDS011;19087;51.062;3.754;2023-09-30T00:37:37;0.20;;;0.20;;
32697;SDS011;19087;51.062;3.754;2023-09-30T00:40:03;0.25;;;0.25;;
32697;SDS011;19087;51.062;3.754;2023-09-30T00:42:30;0.20;;;0.20;;
32697;SDS011;19087;51.062;3.754;2023-09-30T00:44:56;0.20;;;0.20;;
32697;SDS011;19087;51.062;3.754;2023-09-30T00:47:22;0.20;;;0.20;;
32697;SDS011;19087;51.062;3.754;2023-09-30T00:49:49;0.20;;;0.20;;
32697;SDS011;19087;51.062;3.754;2023-09-30T00:52:16;0.20;;;0.20;;
32697;SDS011;19087;51.062;3.754;2023-09-30T00:54:44;0.20;;;0.20;;
32697;SDS011;19087;51.062;3.754;2023-09-30T00:57:11;0.10;;;0.10;;
32697;SDS011;19087;51.062;3.754;2023-09-30T00:59:38;0.30;;;0.30;;
32697;SDS011;19087;51.062;3.754;2023-09-30T01:02:05;0.20;;;0.20;;
32697;SDS011;19087;51.062;3.754;2023-09-30T01:04:32;0.20;;;0.20;;
32697;SDS011;19087;51.062;3.754;2023-09-30T01:06:58;0.30;;;0.30;;
32697;SDS011;19087;51.062;3.754;2023-09-30T01:09:24;0.20;;;0.20;;
32697;SDS011;19087;51.062;3.754;2023-09-30T01:11:50;0.20;;;0.20;;
32697;SDS011;19087;51.062;3.754;2023-09-30T01:16:55;0.20;;;0.20;;
32697;SDS011;19087;51.062;3.754;2023-09-30T01:19:27;0.30;;;0.30;;
32697;SDS011;19087;51.062;3.754;2023-09-30T01:21:57;0.20;;;0.20;;
32697;SDS011;19087;51.062;3.754;2023-09-30T01:24:25;0.25;;;0.25;;
32697;SDS011;19087;51.062;3.754;2023-09-30T01:26:56;0.20;;;0.20;;
32697;SDS011;19087;51.062;3.754;2023-09-30T01:29:22;0.20;;;0.20;;
32697;SDS011;19087;51.062;3.754;2023-09-30T01:31:50;0.20;;;0.20;;
32697;SDS011;19087;51.062;3.754;2023-09-30T01:34:17;0.20;;;0.20;;
32697;SDS011;19087;51.062;3.754;2023-09-30T01:36:44;0.20;;;0.20;;
32697;SDS011;19087;51.062;3.754;2023-09-30T01:39:09;0.20;;;0.20;;
32697;SDS011;19087;51.062;3.754;2023-09-30T01:41:36;0.20;;;0.20;;
32697;SDS011;19087;51.062;3.754;2023-09-30T01:44:03;0.30;;;0.30;;
32697;SDS011;19087;51.062;3.754;2023-09-30T01:46:29;0.20;;;0.20;;
32697;SDS011;19087;51.062;3.754;2023-09-30T01:48:55;0.25;;;0.25;;
32697;SDS011;19087;51.062;3.754;2023-09-30T01:51:21;0.20;;;0.20;;
32697;SDS011;19087;51.062;3.754;2023-09-30T01:53:47;0.20;;;0.20;;
32697;SDS011;19087;51.062;3.754;2023-09-30T01:56:14;0.20;;;0.20;;
32697;SDS011;19087;51.062;3.754;2023-09-30T01:58:40;0.20;;;0.20;;
32697;SDS011;19087;51.062;3.754;2023-09-30T02:01:06;0.30;;;0.30;;
32697;SDS011;19087;51.062;3.754;2023-09-30T02:03:32;0.20;;;0.20;;
32697;SDS011;19087;51.062;3.754;2023-09-30T02:05:58;0.20;;;0.20;;
32697;SDS011;19087;51.062;3.754;2023-09-30T02:08:23;0.25;;;0.25;;
32697;SDS011;19087;51.062;3.754;2023-09-30T02:10:49;0.20;;;0.20;;
32697;SDS011;19087;51.062;3.754;2023-09-30T02:13:18;0.20;;;0.20;;
32697;SDS011;19087;51.062;3.754;2023-09-30T02:15:46;0.20;;;0.20;;
32697;SDS011;19087;51.062;3.754;2023-09-30T02:18:11;0.20;;;0.20;;
32697;SDS011;19087;51.062;3.754;2023-09-30T02:20:37;0.20;;;0.20;;
32697;SDS011;19087;51.062;3.754;2023-09-30T02:23:10;0.20;;;0.20;;
32697;SDS011;19087;51.062;3.754;2023-09-30T02:25:40;0.20;;;0.20;;
32697;SDS011;19087;51.062;3.754;2023-09-30T02:28:06;0.30;;;0.30;;
32697;SDS011;19087;51.062;3.754;2023-09-30T02:30:32;0.20;;;0.20;;
32697;SDS011;19087;51.062;3.754;2023-09-30T02:33:01;0.20;;;0.20;;
32697;SDS011;19087;51.062;3.754;2023-09-30T02:35:33;0.20;;;0.20;;
32697;SDS011;19087;51.062;3.754;2023-09-30T02:37:59;0.20;;;0.20;;
32697;SDS011;19087;51.062;3.754;2023-09-30T02:40:27;0.30;;;0.30;;
32697;SDS011;19087;51.062;3.754;2023-09-30T02:42:53;0.20;;;0.20;;
32697;SDS011;19087;51.062;3.754;2023-09-30T02:45:18;0.30;;;0.30;;
32697;SDS011;19087;51.062;3.754;2023-09-30T02:47:45;0.20;;;0.20;;
32697;SDS011;19087;51.062;3.754;2023-09-30T02:50:12;0.20;;;0.20;;
32697;SDS011;19087;51.062;3.754;2023-09-30T02:52:38;0.20;;;0.20;;
32697;SDS011;19087;51.062;3.754;2023-09-30T02:55:07;0.30;;;0.30;;
32697;SDS011;19087;51.062;3.754;2023-09-30T02:57:34;0.20;;;0.20;;
32697;SDS011;19087;51.062;3.754;2023-09-30T03:00:01;0.30;;;0.30;;
32697;SDS011;19087;51.062;3.754;2023-09-30T03:02:40;0.20;;;0.20;;
32697;SDS011;19087;51.062;3.754;2023-09-30T03:05:06;0.30;;;0.30;;
32697;SDS011;19087;51.062;3.754;2023-09-30T03:07:32;0.20;;;0.20;;
32697;SDS011;19087;51.062;3.754;2023-09-30T03:09:58;0.20;;;0.20;;
32697;SDS011;19087;51.062;3.754;2023-09-30T03:12:25;0.20;;;0.20;;
32697;SDS011;19087;51.062;3.754;2023-09-30T03:14:51;0.20;;;0.20;;
32697;SDS011;19087;51.062;3.754;2023-09-30T03:17:18;0.20;;;0.20;;
32697;SDS011;19087;51.062;3.754;2023-09-30T03:19:44;0.20;;;0.20;;
32697;SDS011;19087;51.062;3.754;2023-09-30T03:22:10;0.20;;;0.20;;
32697;SDS011;19087;51.062;3.754;2023-09-30T03:24:37;0.10;;;0.10;;
32697;SDS011;19087;51.062;3.754;2023-09-30T03:27:06;0.20;;;0.20;;
32697;SDS011;19087;51.062;3.754;2023-09-30T03:29:32;0.20;;;0.20;;
32697;SDS011;19087;51.062;3.754;2023-09-30T03:34:30;0.20;;;0.20;;
32697;SDS011;19087;51.062;3.754;2023-09-30T03:36:55;0.20;;;0.20;;
32697;SDS011;19087;51.062;3.754;2023-09-30T03:39:23;0.30;;;0.30;;
32697;SDS011;19087;51.062;3.754;2023-09-30T03:41:54;0.20;;;0.20;;
32697;SDS011;19087;51.062;3.754;2023-09-30T03:44:21;0.20;;;0.20;;
32697;SDS011;19087;51.062;3.754;2023-09-30T03:46:48;0.20;;;0.20;;
32697;SDS011;19087;51.062;3.754;2023-09-30T03:49:15;0.22;;;0.22;;
32697;SDS011;19087;51.062;3.754;2023-09-30T03:51:41;0.20;;;0.20;;
32697;SDS011;19087;51.062;3.754;2023-09-30T03:54:07;0.20;;;0.20;;
32697;SDS011;19087;51.062;3.754;2023-09-30T03:56:34;0.30;;;0.30;;
32697;SDS011;19087;51.062;3.754;2023-09-30T03:59:01;0.20;;;0.20;;
32697;SDS011;19087;51.062;3.754;2023-09-30T04:01:27;0.20;;;0.20;;
32697;SDS011;19087;51.062;3.754;2023-09-30T04:03:53;0.20;;;0.20;;
32697;SDS011;19087;51.062;3.754;2023-09-30T04:06:22;0.20;;;0.20;;
32697;SDS011;19087;51.062;3.754;2023-09-30T04:08:48;0.20;;;0.20;;
32697;SDS011;19087;51.062;3.754;2023-09-30T04:11:15;0.28;;;0.28;;
32697;SDS011;19087;51.062;3.754;2023-09-30T04:13:47;0.20;;;0.20;;
32697;SDS011;19087;51.062;3.754;2023-09-30T04:16:15;0.20;;;0.20;;
32697;SDS011;19087;51.062;3.754;2023-09-30T04:18:41;0.30;;;0.30;;
32697;SDS011;19087;51.062;3.754;2023-09-30T04:21:07;0.30;;;0.30;;
32697;SDS011;19087;51.062;3.754;2023-09-30T04:23:33;0.20;;;0.20;;
32697;SDS011;19087;51.062;3.754;2023-09-30T04:26:02;0.20;;;0.20;;
32697;SDS011;19087;51.062;3.754;2023-09-30T04:28:28;0.20;;;0.20;;
32697;SDS011;19087;51.062;3.754;2023-09-30T04:30:54;0.20;;;0.20;;
32697;SDS011;19087;51.062;3.754;2023-09-30T04:33:20;0.20;;;0.20;;
32697;SDS011;19087;51.062;3.754;2023-09-30T04:35:49;0.20;;;0.20;;
32697;SDS011;19087;51.062;3.754;2023-09-30T04:38:17;0.20;;;0.20;;
32697;SDS011;19087;51.062;3.754;2023-09-30T04:40:44;0.20;;;0.20;;
32697;SDS011;19087;51.062;3.754;2023-09-30T04:43:13;0.20;;;0.20;;
32697;SDS011;19087;51.062;3.754;2023-09-30T04:45:39;0.30;;;0.30;;
32697;SDS011;19087;51.062;3.754;2023-09-30T04:48:13;0.28;;;0.28;;
32697;SDS011;19087;51.062;3.754;2023-09-30T04:53:10;0.20;;;0.20;;
32697;SDS011;19087;51.062;3.754;2023-09-30T04:55:36;0.20;;;0.20;;
32697;SDS011;19087;51.062;3.754;2023-09-30T04:58:03;0.20;;;0.20;;
32697;SDS011;19087;51.062;3.754;2023-09-30T05:00:30;0.20;;;0.20;;
32697;SDS011;19087;51.062;3.754;2023-09-30T05:02:59;0.20;;;0.20;;
32697;SDS011;19087;51.062;3.754;2023-09-30T05:05:27;0.20;;;0.20;;
32697;SDS011;19087;51.062;3.754;2023-09-30T05:07:55;0.30;;;0.30;;
32697;SDS011;19087;51.062;3.754;2023-09-30T05:10:23;0.20;;;0.20;;
32697;SDS011;19087;51.062;3.754;2023-09-30T05:12:51;0.30;;;0.30;;
32697;SDS011;19087;51.062;3.754;2023-09-30T05:15:20;0.22;;;0.22;;
32697;SDS011;19087;51.062;3.754;2023-09-30T05:17:49;0.30;;;0.30;;
32697;SDS011;19087;51.062;3.754;2023-09-30T05:20:18;0.20;;;0.20;;
32697;SDS011;19087;51.062;3.754;2023-09-30T05:22:45;0.20;;;0.20;;
32697;SDS011;19087;51.062;3.754;2023-09-30T05:25:11;0.17;;;0.17;;
32697;SDS011;19087;51.062;3.754;2023-09-30T05:27:41;0.20;;;0.20;;
32697;SDS011;19087;51.062;3.754;2023-09-30T05:30:09;0.15;;;0.15;;
32697;SDS011;19087;51.062;3.754;2023-09-30T05:32:36;0.20;;;0.20;;
32697;SDS011;19087;51.062;3.754;2023-09-30T05:35:04;0.20;;;0.20;;
32697;SDS011;19087;51.062;3.754;2023-09-30T05:37:32;0.20;;;0.20;;
32697;SDS011;19087;51.062;3.754;2023-09-30T05:39:59;0.30;;;0.30;;
32697;SDS011;19087;51.062;3.754;2023-09-30T05:42:27;0.20;;;0.20;;
32697;SDS011;19087;51.062;3.754;2023-09-30T05:44:52;0.30;;;0.30;;
32697;SDS011;19087;51.062;3.754;2023-09-30T05:47:18;0.20;;;0.20;;
32697;SDS011;19087;51.062;3.754;2023-09-30T05:49:44;0.20;;;0.20;;
32697;SDS011;19087;51.062;3.754;2023-09-30T05:52:09;0.20;;;0.20;;
32697;SDS011;19087;51.062;3.754;2023-09-30T05:54:35;0.20;;;0.20;;
32697;SDS011;19087;51.062;3.754;2023-09-30T05:57:02;0.20;;;0.20;;
32697;SDS011;19087;51.062;3.754;2023-09-30T05:59:29;0.30;;;0.30;;
32697;SDS011;19087;51.062;3.754;2023-09-30T06:01:56;0.20;;;0.20;;
32697;SDS011;19087;51.062;3.754;2023-09-30T06:04:22;0.20;;;0.20;;
32697;SDS011;19087;51.062;3.754;2023-09-30T06:06:48;0.20;;;0.20;;
32697;SDS011;19087;51.062;3.754;2023-09-30T06:09:13;0.20;;;0.20;;
32697;SDS011;19087;51.062;3.754;2023-09-30T06:11:40;0.20;;;0.20;;
32697;SDS011;19087;51.062;3.754;2023-09-30T06:14:08;0.20;;;0.20;;
32697;SDS011;19087;51.062;3.754;2023-09-30T06:16:35;0.20;;;0.20;;
32697;SDS011;19087;51.062;3.754;2023-09-30T06:19:01;0.13;;;0.13;;
32697;SDS011;19087;51.062;3.754;2023-09-30T06:21:28;0.10;;;0.10;;
32697;SDS011;19087;51.062;3.754;2023-09-30T06:23:54;0.20;;;0.20;;
32697;SDS011;19087;51.062;3.754;2023-09-30T06:26:21;0.20;;;0.20;;
32697;SDS011;19087;51.062;3.754;2023-09-30T06:28:47;0.20;;;0.20;;
32697;SDS011;19087;51.062;3.754;2023-09-30T06:31:14;0.20;;;0.20;;
32697;SDS011;19087;51.062;3.754;2023-09-30T06:33:41;0.20;;;0.20;;
32697;SDS011;19087;51.062;3.754;2023-09-30T06:36:10;0.15;;;0.15;;
32697;SDS011;19087;51.062;3.754;2023-09-30T06:38:40;0.20;;;0.20;;
32697;SDS011;19087;51.062;3.754;2023-09-30T06:41:08;0.20;;;0.20;;
32697;SDS011;19087;51.062;3.754;2023-09-30T06:43:34;0.20;;;0.20;;
32697;SDS011;19087;51.062;3.754;2023-09-30T06:46:09;0.20;;;0.20;;
32697;SDS011;19087;51.062;3.754;2023-09-30T06:48:35;0.20;;;0.20;;
32697;SDS011;19087;51.062;3.754;2023-09-30T06:51:01;0.20;;;0.20;;
32697;SDS011;19087;51.062;3.754;2023-09-30T06:53:28;0.10;;;0.10;;
32697;SDS011;19087;51.062;3.754;2023-09-30T06:55:53;0.20;;;0.20;;
32697;SDS011;19087;51.062;3.754;2023-09-30T06:58:19;0.13;;;0.13;;
32697;SDS011;19087;51.062;3.754;2023-09-30T07:00:55;0.20;;;0.20;;
32697;SDS011;19087;51.062;3.754;2023-09-30T07:03:21;0.10;;;0.10;;
32697;SDS011;19087;51.062;3.754;2023-09-30T07:05:47;0.20;;;0.20;;
32697;SDS011;19087;51.062;3.754;2023-09-30T07:08:16;0.10;;;0.10;;
32697;SDS011;19087;51.062;3.754;2023-09-30T07:10:43;0.20;;;0.20;;
32697;SDS011;19087;51.062;3.754;2023-09-30T07:13:11;0.10;;;0.10;;
32697;SDS011;19087;51.062;3.754;2023-09-30T07:15:38;0.10;;;0.10;;
32697;SDS011;19087;51.062;3.754;2023-09-30T07:18:05;0.10;;;0.10;;
32697;SDS011;19087;51.062;3.754;2023-09-30T07:20:39;0.10;;;0.10;;
32697;SDS011;19087;51.062;3.754;2023-09-30T07:23:05;0.15;;;0.15;;
32697;SDS011;19087;51.062;3.754;2023-09-30T07:25:31;0.10;;;0.10;;
32697;SDS011;19087;51.062;3.754;2023-09-30T07:27:59;0.10;;;0.10;;
32697;SDS011;19087;51.062;3.754;2023-09-30T07:30:26;0.10;;;0.10;;
32697;SDS011;19087;51.062;3.754;2023-09-30T07:32:51;0.10;;;0.10;;
32697;SDS011;19087;51.062;3.754;2023-09-30T07:35:17;0.10;;;0.10;;
32697;SDS011;19087;51.062;3.754;2023-09-30T07:37:43;0.10;;;0.10;;
32697;SDS011;19087;51.062;3.754;2023-09-30T07:40:09;0.10;;;0.10;;
32697;SDS011;19087;51.062;3.754;2023-09-30T07:42:36;0.10;;;0.10;;
32697;SDS011;19087;51.062;3.754;2023-09-30T07:45:02;0.10;;;0.10;;
32697;SDS011;19087;51.062;3.754;2023-09-30T07:47:30;0.10;;;0.10;;
32697;SDS011;19087;51.062;3.754;2023-09-30T07:49:58;0.10;;;0.10;;
32697;SDS011;19087;51.062;3.754;2023-09-30T07:52:25;0.10;;;0.10;;
32697;SDS011;19087;51.062;3.754;2023-09-30T07:54:51;0.10;;;0.10;;
32697;SDS011;19087;51.062;3.754;2023-09-30T07:57:17;0.10;;;0.10;;
32697;SDS011;19087;51.062;3.754;2023-09-30T07:59:42;0.20;;;0.20;;
32697;SDS011;19087;51.062;3.754;2023-09-30T08:02:08;0.20;;;0.20;;
32697;SDS011;19087;51.062;3.754;2023-09-30T08:04:35;0.10;;;0.10;;
32697;SDS011;19087;51.062;3.754;2023-09-30T08:07:01;0.20;;;0.20;;
32697;SDS011;19087;51.062;3.754;2023-09-30T08:09:27;0.20;;;0.20;;
32697;SDS011;19087;51.062;3.754;2023-09-30T08:11:53;0.17;;;0.17;;
32697;SDS011;19087;51.062;3.754;2023-09-30T08:14:19;0.13;;;0.13;;
32697;SDS011;19087;51.062;3.754;2023-09-30T08:16:45;0.20;;;0.20;;
32697;SDS011;19087;51.062;3.754;2023-09-30T08:19:12;0.13;;;0.13;;
32697;SDS011;19087;51.062;3.754;2023-09-30T08:21:37;0.20;;;0.20;;
32697;SDS011;19087;51.062;3.754;2023-09-30T08:24:03;0.20;;;0.20;;
32697;SDS011;19087;51.062;3.754;2023-09-30T08:26:29;0.20;;;0.20;;
32697;SDS011;19087;51.062;3.754;2023-09-30T08:28:55;0.20;;;0.20;;
32697;SDS011;19087;51.062;3.754;2023-09-30T08:31:20;0.20;;;0.20;;
32697;SDS011;19087;51.062;3.754;2023-09-30T08:33:47;0.20;;;0.20;;
32697;SDS011;19087;51.062;3.754;2023-09-30T08:36:19;0.20;;;0.20;;
32697;SDS011;19087;51.062;3.754;2023-09-30T08:38:44;0.20;;;0.20;;
32697;SDS011;19087;51.062;3.754;2023-09-30T08:41:11;0.10;;;0.10;;
32697;SDS011;19087;51.062;3.754;2023-09-30T08:43:49;0.20;;;0.20;;
32697;SDS011;19087;51.062;3.754;2023-09-30T08:46:16;0.20;;;0.20;;
32697;SDS011;19087;51.062;3.754;2023-09-30T08:48:43;0.20;;;0.20;;
32697;SDS011;19087;51.062;3.754;2023-09-30T08:51:09;0.10;;;0.10;;
32697;SDS011;19087;51.062;3.754;2023-09-30T08:53:35;0.15;;;0.15;;
32697;SDS011;19087;51.062;3.754;2023-09-30T08:56:01;0.20;;;0.20;;
32697;SDS011;19087;51.062;3.754;2023-09-30T08:58:32;0.20;;;0.20;;
32697;SDS011;19087;51.062;3.754;2023-09-30T09:01:01;0.20;;;0.20;;
32697;SDS011;19087;51.062;3.754;2023-09-30T09:03:27;0.20;;;0.20;;
32697;SDS011;19087;51.062;3.754;2023-09-30T09:05:54;0.20;;;0.20;;
32697;SDS011;19087;51.062;3.754;2023-09-30T09:08:25;0.10;;;0.10;;
32697;SDS011;19087;51.062;3.754;2023-09-30T09:10:55;0.20;;;0.20;;
32697;SDS011;19087;51.062;3.754;2023-09-30T09:13:23;0.17;;;0.17;;
32697;SDS011;19087;51.062;3.754;2023-09-30T09:15:49;0.20;;;0.20;;
32697;SDS011;19087;51.062;3.754;2023-09-30T09:21:30;0.20;;;0.20;;
32697;SDS011;19087;51.062;3.754;2023-09-30T09:23:53;0.17;;;0.17;;
32697;SDS011;19087;51.062;3.754;2023-09-30T09:26:25;0.10;;;0.10;;
32697;SDS011;19087;51.062;3.754;2023-09-30T09:28:59;0.10;;;0.10;;
32697;SDS011;19087;51.062;3.754;2023-09-30T09:31:31;0.20;;;0.20;;
32697;SDS011;19087;51.062;3.754;2023-09-30T09:34:02;0.13;;;0.13;;
32697;SDS011;19087;51.062;3.754;2023-09-30T09:36:41;0.10;;;0.10;;
32697;SDS011;19087;51.062;3.754;2023-09-30T09:39:09;0.10;;;0.10;;
32697;SDS011;19087;51.062;3.754;2023-09-30T09:41:48;0.10;;;0.10;;
32697;SDS011;19087;51.062;3.754;2023-09-30T09:44:21;0.10;;;0.10;;
32697;SDS011;19087;51.062;3.754;2023-09-30T09:46:48;0.10;;;0.10;;
32697;SDS011;19087;51.062;3.754;2023-09-30T09:49:16;0.10;;;0.10;;
32697;SDS011;19087;51.062;3.754;2023-09-30T09:51:43;0.10;;;0.10;;
32697;SDS011;19087;51.062;3.754;2023-09-30T09:54:13;0.15;;;0.15;;
32697;SDS011;19087;51.062;3.754;2023-09-30T09:56:40;0.20;;;0.20;;
32697;SDS011;19087;51.062;3.754;2023-09-30T09:59:11;0.10;;;0.10;;
32697;SDS011;19087;51.062;3.754;2023-09-30T10:01:42;0.10;;;0.10;;
32697;SDS011;19087;51.062;3.754;2023-09-30T10:04:10;0.10;;;0.10;;
32697;SDS011;19087;51.062;3.754;2023-09-30T10:06:36;0.10;;;0.10;;
32697;SDS011;19087;51.062;3.754;2023-09-30T10:09:06;0.10;;;0.10;;
32697;SDS011;19087;51.062;3.754;2023-09-30T10:11:35;0.10;;;0.10;;
32697;SDS011;19087;51.062;3.754;2023-09-30T10:14:02;0.10;;;0.10;;
32697;SDS011;19087;51.062;3.754;2023-09-30T10:19:09;0.10;;;0.10;;
32697;SDS011;19087;51.062;3.754;2023-09-30T10:24:48;0.10;;;0.10;;
32697;SDS011;19087;51.062;3.754;2023-09-30T10:30:05;0.10;;;0.10;;
32697;SDS011;19087;51.062;3.754;2023-09-30T10:38:35;0.20;;;0.20;;
32697;SDS011;19087;51.062;3.754;2023-09-30T10:40:50;0.10;;;0.10;;
32697;SDS011;19087;51.062;3.754;2023-09-30T10:43:36;0.10;;;0.10;;
32697;SDS011;19087;51.062;3.754;2023-09-30T10:46:03;0.20;;;0.20;;
32697;SDS011;19087;51.062;3.754;2023-09-30T10:48:51;0.10;;;0.10;;
32697;SDS011;19087;51.062;3.754;2023-09-30T10:51:18;0.20;;;0.20;;
32697;SDS011;19087;51.062;3.754;2023-09-30T10:53:48;0.10;;;0.10;;
32697;SDS011;19087;51.062;3.754;2023-09-30T10:56:21;0.10;;;0.10;;
32697;SDS011;19087;51.062;3.754;2023-09-30T10:58:50;0.10;;;0.10;;
32697;SDS011;19087;51.062;3.754;2023-09-30T11:01:23;0.10;;;0.10;;
32697;SDS011;19087;51.062;3.754;2023-09-30T11:03:57;0.10;;;0.10;;
32697;SDS011;19087;51.062;3.754;2023-09-30T11:06:28;0.20;;;0.20;;
32697;SDS011;19087;51.062;3.754;2023-09-30T11:08:58;0.10;;;0.10;;
32697;SDS011;19087;51.062;3.754;2023-09-30T11:11:41;0.10;;;0.10;;
32697;SDS011;19087;51.062;3.754;2023-09-30T11:14:24;0.10;;;0.10;;
32697;SDS011;19087;51.062;3.754;2023-09-30T11:17:03;0.17;;;0.17;;
32697;SDS011;19087;51.062;3.754;2023-09-30T11:20:02;0.20;;;0.20;;
32697;SDS011;19087;51.062;3.754;2023-09-30T11:22:21;0.20;;;0.20;;
32697;SDS011;19087;51.062;3.754;2023-09-30T11:24:47;0.10;;;0.10;;
32697;SDS011;19087;51.062;3.754;2023-09-30T11:27:21;0.10;;;0.10;;
32697;SDS011;19087;51.062;3.754;2023-09-30T11:29:49;0.10;;;0.10;;
32697;SDS011;19087;51.062;3.754;2023-09-30T11:32:26;0.10;;;0.10;;
32697;SDS011;19087;51.062;3.754;2023-09-30T11:34:53;0.10;;;0.10;;
32697;SDS011;19087;51.062;3.754;2023-09-30T11:37:19;0.10;;;0.10;;
32697;SDS011;19087;51.062;3.754;2023-09-30T11:39:46;0.10;;;0.10;;
32697;SDS011;19087;51.062;3.754;2023-09-30T11:42:17;0.20;;;0.20;;
32697;SDS011;19087;51.062;3.754;2023-09-30T11:44:45;0.10;;;0.10;;
32697;SDS011;19087;51.062;3.754;2023-09-30T11:47:15;0.10;;;0.10;;
32697;SDS011;19087;51.062;3.754;2023-09-30T11:49:42;0.10;;;0.10;;
32697;SDS011;19087;51.062;3.754;2023-09-30T11:52:13;0.10;;;0.10;;
32697;SDS011;19087;51.062;3.754;2023-09-30T11:54:42;0.10;;;0.10;;
32697;SDS011;19087;51.062;3.754;2023-09-30T11:57:14;0.05;;;0.05;;
32697;SDS011;19087;51.062;3.754;2023-09-30T11:59:41;0.10;;;0.10;;
32697;SDS011;19087;51.062;3.754;2023-09-30T12:02:16;0.03;;;0.03;;
32697;SDS011;19087;51.062;3.754;2023-09-30T12:04:45;0.10;;;0.10;;
32697;SDS011;19087;51.062;3.754;2023-09-30T12:07:12;0.10;;;0.10;;
32697;SDS011;19087;51.062;3.754;2023-09-30T12:09:38;0.10;;;0.10;;
32697;SDS011;19087;51.062;3.754;2023-09-30T12:12:04;0.10;;;0.10;;
32697;SDS011;19087;51.062;3.754;2023-09-30T12:14:34;0.10;;;0.10;;
32697;SDS011;19087;51.062;3.754;2023-09-30T12:17:01;0.10;;;0.10;;
32697;SDS011;19087;51.062;3.754;2023-09-30T12:19:28;0.10;;;0.10;;
32697;SDS011;19087;51.062;3.754;2023-09-30T12:21:54;0.10;;;0.10;;
32697;SDS011;19087;51.062;3.754;2023-09-30T12:24:20;0.10;;;0.10;;
32697;SDS011;19087;51.062;3.754;2023-09-30T12:26:47;0.10;;;0.10;;
32697;SDS011;19087;51.062;3.754;2023-09-30T12:29:16;0.10;;;0.10;;
32697;SDS011;19087;51.062;3.754;2023-09-30T12:31:46;0.10;;;0.10;;
32697;SDS011;19087;51.062;3.754;2023-09-30T12:34:13;0.00;;;0.00;;
32697;SDS011;19087;51.062;3.754;2023-09-30T12:36:39;0.10;;;0.10;;
32697;SDS011;19087;51.062;3.754;2023-09-30T12:39:05;0.10;;;0.10;;
32697;SDS011;19087;51.062;3.754;2023-09-30T12:41:39;0.10;;;0.10;;
32697;SDS011;19087;51.062;3.754;2023-09-30T12:44:07;0.10;;;0.10;;
32697;SDS011;19087;51.062;3.754;2023-09-30T12:46:33;0.10;;;0.10;;
32697;SDS011;19087;51.062;3.754;2023-09-30T12:49:04;0.10;;;0.10;;
32697;SDS011;19087;51.062;3.754;2023-09-30T12:51:31;0.10;;;0.10;;
32697;SDS011;19087;51.062;3.754;2023-09-30T12:53:57;0.10;;;0.10;;
32697;SDS011;19087;51.062;3.754;2023-09-30T12:56:23;0.10;;;0.10;;
32697;SDS011;19087;51.062;3.754;2023-09-30T12:58:49;0.10;;;0.10;;
32697;SDS011;19087;51.062;3.754;2023-09-30T13:01:21;0.10;;;0.10;;
32697;SDS011;19087;51.062;3.754;2023-09-30T13:03:48;0.10;;;0.10;;
32697;SDS011;19087;51.062;3.754;2023-09-30T13:06:14;0.10;;;0.10;;
32697;SDS011;19087;51.062;3.754;2023-09-30T13:08:41;0.10;;;0.10;;
32697;SDS011;19087;51.062;3.754;2023-09-30T13:11:07;0.10;;;0.10;;
32697;SDS011;19087;51.062;3.754;2023-09-30T13:13:34;0.10;;;0.10;;
32697;SDS011;19087;51.062;3.754;2023-09-30T13:16:00;0.10;;;0.10;;
32697;SDS011;19087;51.062;3.754;2023-09-30T13:18:26;0.10;;;0.10;;
32697;SDS011;19087;51.062;3.754;2023-09-30T13:20:52;0.10;;;0.10;;
32697;SDS011;19087;51.062;3.754;2023-09-30T13:23:18;0.10;;;0.10;;
32697;SDS011;19087;51.062;3.754;2023-09-30T13:25:44;0.10;;;0.10;;
32697;SDS011;19087;51.062;3.754;2023-09-30T13:28:10;0.10;;;0.10;;
32697;SDS011;19087;51.062;3.754;2023-09-30T13:30:36;0.10;;;0.10;;
32697;SDS011;19087;51.062;3.754;2023-09-30T13:33:02;0.10;;;0.10;;
32697;SDS011;19087;51.062;3.754;2023-09-30T13:35:28;0.10;;;0.10;;
32697;SDS011;19087;51.062;3.754;2023-09-30T13:37:56;0.10;;;0.10;;
32697;SDS011;19087;51.062;3.754;2023-09-30T13:40:23;0.10;;;0.10;;
32697;SDS011;19087;51.062;3.754;2023-09-30T13:42:49;0.10;;;0.10;;
32697;SDS011;19087;51.062;3.754;2023-09-30T13:45:15;0.10;;;0.10;;
32697;SDS011;19087;51.062;3.754;2023-09-30T13:47:44;0.10;;;0.10;;
32697;SDS011;19087;51.062;3.754;2023-09-30T13:50:15;0.10;;;0.10;;
32697;SDS011;19087;51.062;3.754;2023-09-30T13:52:41;0.10;;;0.10;;
32697;SDS011;19087;51.062;3.754;2023-09-30T13:55:07;0.10;;;0.10;;
32697;SDS011;19087;51.062;3.754;2023-09-30T13:57:33;0.10;;;0.10;;
32697;SDS011;19087;51.062;3.754;2023-09-30T14:00:00;0.10;;;0.10;;
32697;SDS011;19087;51.062;3.754;2023-09-30T14:02:30;0.10;;;0.10;;
32697;SDS011;19087;51.062;3.754;2023-09-30T14:04:56;0.10;;;0.10;;
32697;SDS011;19087;51.062;3.754;2023-09-30T14:07:21;0.10;;;0.10;;
32697;SDS011;19087;51.062;3.754;2023-09-30T14:09:48;0.10;;;0.10;;
32697;SDS011;19087;51.062;3.754;2023-09-30T14:12:14;0.10;;;0.10;;
32697;SDS011;19087;51.062;3.754;2023-09-30T14:14:42;0.10;;;0.10;;
32697;SDS011;19087;51.062;3.754;2023-09-30T14:17:09;0.10;;;0.10;;
32697;SDS011;19087;51.062;3.754;2023-09-30T14:19:39;0.08;;;0.08;;
32697;SDS011;19087;51.062;3.754;2023-09-30T14:22:06;0.10;;;0.10;;
32697;SDS011;19087;51.062;3.754;2023-09-30T14:24:33;0.10;;;0.10;;
32697;SDS011;19087;51.062;3.754;2023-09-30T14:27:01;0.10;;;0.10;;
32697;SDS011;19087;51.062;3.754;2023-09-30T14:29:30;0.10;;;0.10;;
32697;SDS011;19087;51.062;3.754;2023-09-30T14:31:56;0.10;;;0.10;;
32697;SDS011;19087;51.062;3.754;2023-09-30T14:34:23;0.10;;;0.10;;
32697;SDS011;19087;51.062;3.754;2023-09-30T14:36:49;0.10;;;0.10;;
32697;SDS011;19087;51.062;3.754;2023-09-30T14:39:15;0.20;;;0.20;;
32697;SDS011;19087;51.062;3.754;2023-09-30T14:41:42;0.10;;;0.10;;
32697;SDS011;19087;51.062;3.754;2023-09-30T14:44:08;0.10;;;0.10;;
32697;SDS011;19087;51.062;3.754;2023-09-30T14:46:37;0.00;;;0.00;;
32697;SDS011;19087;51.062;3.754;2023-09-30T14:49:04;0.10;;;0.10;;
32697;SDS011;19087;51.062;3.754;2023-09-30T14:51:34;0.10;;;0.10;;
32697;SDS011;19087;51.062;3.754;2023-09-30T14:53:59;0.10;;;0.10;;
32697;SDS011;19087;51.062;3.754;2023-09-30T14:56:26;0.10;;;0.10;;
32697;SDS011;19087;51.062;3.754;2023-09-30T14:58:52;0.10;;;0.10;;
32697;SDS011;19087;51.062;3.754;2023-09-30T15:01:18;0.10;;;0.10;;
32697;SDS011;19087;51.062;3.754;2023-09-30T15:03:45;0.10;;;0.10;;
32697;SDS011;19087;51.062;3.754;2023-09-30T15:06:11;0.10;;;0.10;;
32697;SDS011;19087;51.062;3.754;2023-09-30T15:08:36;0.10;;;0.10;;
32697;SDS011;19087;51.062;3.754;2023-09-30T15:11:02;0.10;;;0.10;;
32697;SDS011;19087;51.062;3.754;2023-09-30T15:13:29;0.10;;;0.10;;
32697;SDS011;19087;51.062;3.754;2023-09-30T15:15:55;0.10;;;0.10;;